MDT,Max TemperatureF,Mean TemperatureF,Min TemperatureF,Max Dew PointF,MeanDew PointF,Min DewpointF,Max Humidity, Mean Humidity, Min Humidity, Max Sea Level PressureIn, Mean Sea Level PressureIn, Min Sea Level PressureIn, Max VisibilityMiles, Mean VisibilityMiles, Min VisibilityMiles, Max Wind SpeedMPH, Mean Wind SpeedMPH, Max Gust SpeedMPH,PrecipitationIn, CloudCover, Events, WindDirDegrees
2012-9-1,84,70,57,45,33,27,55,26,13,30.04,29.94,29.76,10,10,8,14,6,17,0.00,2,,330
2012-9-2,82,62,41,41,30,19,81,32,10,30.15,30.08,29.99,10,10,10,8,4,,0.00,0,,340
2012-9-3,84,62,41,45,35,25,81,42,11,30.13,30.04,29.95,10,10,10,8,2,,0.00,0,,294
2012-9-4,84,66,48,43,36,28,76,38,13,30.15,30.07,30.00,10,10,10,12,3,17,0.00,0,,314
2012-9-5,87,66,46,48,40,32,82,45,14,30.10,30.00,29.86,10,10,7,8,1,,0.00,0,,55
2012-9-6,82,66,50,48,41,34,82,44,17,30.06,29.99,29.87,10,10,10,9,2,,0.00,0,,64
2012-9-7,84,64,44,48,42,36,87,52,18,30.25,30.17,30.07,10,10,9,8,2,,0.00,0,,228
2012-9-8,93,70,48,46,36,28,76,36,10,30.22,30.12,29.95,10,10,10,10,4,,0.00,0,,134
2012-9-9,91,78,64,50,38,30,56,26,15,29.96,29.88,29.79,10,10,10,14,8,21,0.00,0,,125
2012-9-10,77,62,48,43,34,27,71,33,17,30.04,29.96,29.84,10,10,9,13,7,17,0.00,0,,332
2012-9-11,71,60,48,39,29,18,54,36,13,30.19,30.12,30.00,10,10,9,16,10,21,0.00,1,,306
2012-9-12,77,60,44,36,26,14,62,34,10,30.33,30.25,30.15,10,10,8,13,4,18,0.00,1,,313
2012-9-13,80,60,39,39,28,19,70,37,12,30.41,30.32,30.22,10,10,3,8,4,,0.00,3,,140
2012-9-14,84,62,41,46,33,23,72,39,13,30.25,30.17,30.03,10,10,7,12,4,,0.00,2,,132
2012-9-15,87,66,46,45,35,30,71,35,14,30.16,30.07,29.99,10,10,5,9,3,,0.00,0,,90
2012-9-16,84,66,48,41,37,32,71,34,15,30.13,30.07,30.02,10,10,10,14,6,21,0.00,1,,325
2012-9-17,80,61,42,41,35,27,81,39,14,30.21,30.13,30.08,10,10,5,12,5,,0.00,1,,331
2012-9-18,84,64,44,41,33,27,66,36,12,30.19,30.12,30.05,10,10,9,7,3,,0.00,2,,131
2012-9-19,84,63,42,48,38,32,81,49,15,30.19,30.13,30.07,10,10,7,9,1,,0.00,3,,329
2012-9-20,73,57,41,48,39,32,81,58,22,30.20,30.13,30.07,10,9,5,6,1,,0.00,2,,145
2012-9-21,75,60,44,45,36,32,82,50,21,30.15,30.08,30.00,9,5,3,7,3,,0.00,3,,145
2012-9-22,71,56,41,45,40,32,87,55,29,30.07,30.02,29.96,5,4,2,12,3,,0.00,0,,243
2012-9-23,66,56,46,50,44,34,100,63,30,30.12,30.04,29.95,10,7,3,16,4,21,0.02,3,,325
2012-9-24,75,58,41,52,46,41,100,75,31,30.13,30.06,29.98,10,6,0,8,3,,0.00,2,,333
2012-9-25,77,62,48,50,46,41,93,62,28,30.02,29.98,29.94,10,9,2,10,2,,0.00,3,,325
2012-9-26,78,62,46,50,46,41,100,61,30,30.07,30.02,29.97,10,10,7,6,2,,0.00,1,,139
2012-9-27,80,62,44,50,43,39,88,58,24,30.11,30.05,29.98,10,10,8,7,3,,0.00,1,,154
2012-9-28,80,62,44,50,41,34,82,49,24,30.06,30.01,29.95,10,10,5,15,3,17,0.00,1,,83
2012-9-29,82,63,44,50,43,34,100,56,17,30.15,30.09,30.01,10,9,5,7,2,,0.00,0,,10
2012-9-30,80,62,44,46,40,30,93,51,17,30.27,30.21,30.13,10,10,9,12,2,16,0.00,1,,324